Time;durP1;ratioP1;P1;durP2;ratioP2;P2;SDS_P1;SDS_P2;PMS_P1;PMS_P2;Temp;Humidity;BMP_temperature;BMP_pressure;BME280_temperature;BME280_humidity;BME280_pressure;Samples;Min_cycle;Max_cycle;Signal;HPM_P1;HPM_P2
2023/06/19 00:02:10;;;;;;;19.63;12.43;;;;;;;;;;5077612;28;20783;-81
2023/06/19 00:04:36;;;;;;;32.83;17.48;;;;;;;;;;5072702;28;20355;-82
2023/06/19 00:07:01;;;;;;;46.83;25.58;;;;;;;;;;5083378;28;20032;-83
2023/06/19 00:09:26;;;;;;;38.63;19.67;;;;;;;;;;5079011;28;20123;-81
2023/06/19 00:11:52;;;;;;;19.25;13.13;;;;;;;;;;5078233;28;20036;-81
2023/06/19 00:14:17;;;;;;;14.27;9.80;;;;;;;;;;5079770;28;20028;-81
2023/06/19 00:16:43;;;;;;;14.25;8.98;;;;;;;;;;5077256;28;20130;-83
2023/06/19 00:19:08;;;;;;;14.90;10.13;;;;;;;;;;5079232;28;20028;-82
2023/06/19 00:21:34;;;;;;;25.50;12.95;;;;;;;;;;5079515;28;20451;-81
2023/06/19 00:23:59;;;;;;;19.95;11.80;;;;;;;;;;5084736;28;20568;-81
2023/06/19 00:26:25;;;;;;;22.90;11.43;;;;;;;;;;5083851;28;20111;-82
2023/06/19 00:28:51;;;;;;;16.08;8.43;;;;;;;;;;5085809;28;20020;-81
2023/06/19 00:31:16;;;;;;;14.43;8.48;;;;;;;;;;5082601;28;20544;-81
2023/06/19 00:33:42;;;;;;;11.30;9.55;;;;;;;;;;5075274;28;20032;-81
2023/06/19 00:36:11;;;;;;;18.75;10.25;;;;;;;;;;5077612;28;20032;-81
2023/06/19 00:38:36;;;;;;;20.45;10.13;;;;;;;;;;5070768;28;20020;-80
2023/06/19 00:41:03;;;;;;;20.17;12.82;;;;;;;;;;5080924;28;20043;-82
2023/06/19 00:43:29;;;;;;;17.10;9.85;;;;;;;;;;5072367;28;20092;-80
2023/06/19 00:45:56;;;;;;;15.02;8.60;;;;;;;;;;5071510;28;21227;-79
2023/06/19 00:48:21;;;;;;;24.50;11.60;;;;;;;;;;5081858;28;20036;-82
2023/06/19 00:50:47;;;;;;;55.92;23.95;;;;;;;;;;5076605;28;20027;-80
2023/06/19 00:53:13;;;;;;;51.38;24.17;;;;;;;;;;5084008;28;20071;-83
2023/06/19 00:55:38;;;;;;;43.72;20.60;;;;;;;;;;5073724;28;20027;-81
2023/06/19 00:58:03;;;;;;;32.03;17.05;;;;;;;;;;5081291;28;20044;-80
2023/06/19 01:00:29;;;;;;;33.42;15.57;;;;;;;;;;5083999;28;20059;-82
2023/06/19 01:02:54;;;;;;;33.78;16.92;;;;;;;;;;5084361;28;20044;-83
2023/06/19 01:05:20;;;;;;;40.75;17.83;;;;;;;;;;5069223;28;20020;-80
2023/06/19 01:07:45;;;;;;;39.10;19.23;;;;;;;;;;5074495;28;20027;-82
2023/06/19 01:10:13;;;;;;;36.55;20.73;;;;;;;;;;5083207;28;20283;-81
2023/06/19 01:12:44;;;;;;;43.35;20.00;;;;;;;;;;5082909;28;20028;-82
2023/06/19 01:15:10;;;;;;;39.15;20.30;;;;;;;;;;5083367;28;20407;-81
2023/06/19 01:17:36;;;;;;;25.83;16.67;;;;;;;;;;5082588;28;20080;-81
2023/06/19 01:20:06;;;;;;;27.02;14.05;;;;;;;;;;5072980;28;20028;-80
2023/06/19 01:22:32;;;;;;;22.55;12.60;;;;;;;;;;5081336;28;21067;-80
2023/06/19 01:24:57;;;;;;;21.55;11.65;;;;;;;;;;5073155;28;20032;-80
2023/06/19 01:27:25;;;;;;;18.35;12.80;;;;;;;;;;5080730;28;20032;-81
2023/06/19 01:29:51;;;;;;;18.95;13.05;;;;;;;;;;5082456;28;20028;-81
2023/06/19 01:32:26;;;;;;;20.52;11.60;;;;;;;;;;5082738;28;20397;-79
2023/06/19 01:34:52;;;;;;;17.27;13.07;;;;;;;;;;5073475;28;20059;-81
2023/06/19 01:37:18;;;;;;;19.52;12.05;;;;;;;;;;5079407;28;20104;-81
2023/06/19 01:39:44;;;;;;;15.73;12.20;;;;;;;;;;5082329;28;20111;-82
2023/06/19 01:42:11;;;;;;;26.52;13.70;;;;;;;;;;5077291;28;20043;-81
2023/06/19 01:44:36;;;;;;;13.48;9.20;;;;;;;;;;5070252;28;20036;-81
2023/06/19 01:47:09;;;;;;;12.75;9.52;;;;;;;;;;5074180;28;20085;-81
2023/06/19 01:49:34;;;;;;;11.20;8.70;;;;;;;;;;5073886;28;20043;-84
2023/06/19 01:52:00;;;;;;;11.77;8.20;;;;;;;;;;5071947;28;20036;-80
2023/06/19 01:54:26;;;;;;;12.52;7.95;;;;;;;;;;5082758;28;20059;-80
2023/06/19 01:56:52;;;;;;;8.88;7.78;;;;;;;;;;5082437;28;20067;-80
2023/06/19 01:59:17;;;;;;;10.63;8.02;;;;;;;;;;5077133;28;20040;-80
2023/06/19 02:01:45;;;;;;;10.35;7.85;;;;;;;;;;5074915;28;20043;-80
2023/06/19 02:04:10;;;;;;;19.40;11.45;;;;;;;;;;5076715;28;20016;-82
2023/06/19 02:06:36;;;;;;;13.35;9.43;;;;;;;;;;5078027;28;20039;-80
2023/06/19 02:09:01;;;;;;;15.23;10.07;;;;;;;;;;5083750;28;20454;-79
2023/06/19 02:11:26;;;;;;;15.02;10.23;;;;;;;;;;5078359;28;20032;-81
2023/06/19 02:13:52;;;;;;;14.50;9.90;;;;;;;;;;5072892;28;20405;-82
2023/06/19 02:16:18;;;;;;;10.07;6.97;;;;;;;;;;5081155;28;20027;-83
2023/06/19 02:18:43;;;;;;;9.82;7.18;;;;;;;;;;5077340;28;20027;-82
2023/06/19 02:21:08;;;;;;;11.65;7.97;;;;;;;;;;5068655;28;20046;-81
2023/06/19 02:23:34;;;;;;;10.55;8.35;;;;;;;;;;5083179;28;20032;-82
2023/06/19 02:25:59;;;;;;;9.65;8.05;;;;;;;;;;5082505;28;20089;-83
2023/06/19 02:28:24;;;;;;;12.90;8.48;;;;;;;;;;5082386;28;20074;-81
2023/06/19 02:30:50;;;;;;;11.95;8.65;;;;;;;;;;5080412;28;20070;-81
2023/06/19 02:33:15;;;;;;;12.50;9.68;;;;;;;;;;5077753;28;20474;-82
2023/06/19 02:35:41;;;;;;;13.55;9.55;;;;;;;;;;5072629;28;20085;-83
2023/06/19 02:38:07;;;;;;;16.58;10.82;;;;;;;;;;5081771;28;20024;-81
2023/06/19 02:40:32;;;;;;;16.65;11.13;;;;;;;;;;5081365;28;20039;-83
2023/06/19 02:42:57;;;;;;;16.90;10.60;;;;;;;;;;5069329;28;20079;-80
2023/06/19 02:45:23;;;;;;;15.57;10.93;;;;;;;;;;5081350;28;20043;-79
2023/06/19 02:47:50;;;;;;;13.57;8.93;;;;;;;;;;5078731;28;20024;-81
2023/06/19 02:50:15;;;;;;;11.32;8.77;;;;;;;;;;5062158;28;20366;-80
2023/06/19 02:52:40;;;;;;;9.75;8.00;;;;;;;;;;5080099;28;20035;-80
2023/06/19 02:55:07;;;;;;;10.63;7.75;;;;;;;;;;5074602;28;20028;-79
2023/06/19 02:57:33;;;;;;;9.05;7.57;;;;;;;;;;5077506;28;20373;-82
2023/06/19 02:59:58;;;;;;;9.68;8.60;;;;;;;;;;5082178;28;20044;-82
2023/06/19 03:02:23;;;;;;;15.45;9.68;;;;;;;;;;5078186;28;20085;-80
2023/06/19 03:04:50;;;;;;;12.55;10.07;;;;;;;;;;5067297;28;20028;-82
2023/06/19 03:07:15;;;;;;;11.88;9.48;;;;;;;;;;5068750;28;20344;-79
2023/06/19 03:09:40;;;;;;;9.77;8.52;;;;;;;;;;5079471;28;20012;-79
2023/06/19 03:12:06;;;;;;;10.20;8.52;;;;;;;;;;5077663;28;20023;-82
2023/06/19 03:14:31;;;;;;;7.15;6.45;;;;;;;;;;5075775;28;20106;-82
2023/06/19 03:16:57;;;;;;;10.48;7.53;;;;;;;;;;5072005;28;20032;-80
2023/06/19 03:19:22;;;;;;;9.35;7.07;;;;;;;;;;5067317;28;20364;-79
2023/06/19 03:21:47;;;;;;;13.18;7.68;;;;;;;;;;5074705;28;20051;-80
2023/06/19 03:24:13;;;;;;;8.30;7.55;;;;;;;;;;5078926;28;20020;-81
2023/06/19 03:26:39;;;;;;;16.45;10.93;;;;;;;;;;5082199;28;20031;-79
2023/06/19 03:29:04;;;;;;;11.95;10.57;;;;;;;;;;5081073;28;20377;-79
2023/06/19 03:31:29;;;;;;;16.08;11.80;;;;;;;;;;5079909;28;20036;-79
2023/06/19 03:33:55;;;;;;;14.75;9.77;;;;;;;;;;5076528;28;20063;-79
2023/06/19 03:36:20;;;;;;;32.58;26.00;;;;;;;;;;5073790;28;20374;-81
2023/06/19 03:38:46;;;;;;;24.80;21.23;;;;;;;;;;5073222;28;20077;-83
2023/06/19 03:41:11;;;;;;;25.30;19.92;;;;;;;;;;5077508;28;20054;-80
2023/06/19 03:43:37;;;;;;;18.65;16.08;;;;;;;;;;5081553;28;20030;-80
2023/06/19 03:46:02;;;;;;;19.13;14.38;;;;;;;;;;5077511;28;20426;-79
2023/06/19 03:48:28;;;;;;;15.80;9.48;;;;;;;;;;5078093;28;20024;-81
2023/06/19 03:50:53;;;;;;;9.90;8.30;;;;;;;;;;5072301;28;20032;-82
2023/06/19 03:53:18;;;;;;;12.80;8.65;;;;;;;;;;5076266;28;20036;-81
2023/06/19 03:55:44;;;;;;;9.80;7.75;;;;;;;;;;5060138;28;20032;-79
2023/06/19 03:58:09;;;;;;;10.82;8.20;;;;;;;;;;5062593;28;20049;-81
2023/06/19 04:00:35;;;;;;;11.15;7.63;;;;;;;;;;5060722;28;20036;-82
2023/06/19 04:03:00;;;;;;;9.18;7.32;;;;;;;;;;5058561;28;20450;-80
2023/06/19 04:05:26;;;;;;;8.98;7.70;;;;;;;;;;5064938;28;20108;-82
2023/06/19 04:07:51;;;;;;;10.60;7.70;;;;;;;;;;5057913;28;20032;-82
2023/06/19 04:10:16;;;;;;;9.70;8.15;;;;;;;;;;5061542;28;20043;-81
2023/06/19 04:12:42;;;;;;;9.25;8.32;;;;;;;;;;5059621;28;20044;-81
2023/06/19 04:15:08;;;;;;;13.98;10.02;;;;;;;;;;5060792;28;20032;-80
2023/06/19 04:17:33;;;;;;;10.93;8.45;;;;;;;;;;5064996;28;20020;-79
2023/06/19 04:19:58;;;;;;;8.88;8.07;;;;;;;;;;5063856;28;20071;-81
2023/06/19 04:22:24;;;;;;;15.88;9.30;;;;;;;;;;5074469;28;20111;-80
2023/06/19 04:24:49;;;;;;;9.88;8.55;;;;;;;;;;5076180;28;20582;-82
2023/06/19 04:27:14;;;;;;;12.68;9.48;;;;;;;;;;5076050;28;20028;-80
2023/06/19 04:29:39;;;;;;;10.05;8.70;;;;;;;;;;5074178;28;20036;-80
2023/06/19 04:32:10;;;;;;;12.13;9.68;;;;;;;;;;5075905;28;20032;-83
2023/06/19 04:34:36;;;;;;;9.98;8.93;;;;;;;;;;5073106;28;20447;-85
2023/06/19 04:37:01;;;;;;;11.27;7.90;;;;;;;;;;5068459;28;20058;-78
2023/06/19 04:39:27;;;;;;;11.57;8.60;;;;;;;;;;5066151;28;20047;-78
2023/06/19 04:41:52;;;;;;;8.75;7.68;;;;;;;;;;5077882;28;20093;-79
2023/06/19 04:44:17;;;;;;;10.02;7.90;;;;;;;;;;5080644;28;20024;-81
2023/06/19 04:46:43;;;;;;;21.98;13.40;;;;;;;;;;5077603;28;20042;-77
2023/06/19 04:49:09;;;;;;;13.10;9.88;;;;;;;;;;5081688;28;20032;-84
2023/06/19 04:51:34;;;;;;;12.98;9.55;;;;;;;;;;5082348;28;20101;-81
2023/06/19 04:54:00;;;;;;;16.33;10.05;;;;;;;;;;5081763;28;20043;-80
2023/06/19 04:56:25;;;;;;;12.07;9.38;;;;;;;;;;5068877;28;20035;-83
2023/06/19 04:58:51;;;;;;;11.77;9.32;;;;;;;;;;5068655;28;20361;-79
2023/06/19 05:01:16;;;;;;;9.85;8.85;;;;;;;;;;5071836;28;20034;-78
2023/06/19 05:03:43;;;;;;;12.00;7.97;;;;;;;;;;5083522;28;20040;-77
2023/06/19 05:06:09;;;;;;;9.65;8.65;;;;;;;;;;5081477;28;20031;-78
2023/06/19 05:08:35;;;;;;;12.57;8.70;;;;;;;;;;5082157;28;20581;-80
2023/06/19 05:11:00;;;;;;;15.85;8.68;;;;;;;;;;5083994;28;20135;-80
2023/06/19 05:13:25;;;;;;;10.07;8.10;;;;;;;;;;5081671;28;20717;-78
2023/06/19 05:15:51;;;;;;;9.85;8.32;;;;;;;;;;5082116;28;20490;-79
2023/06/19 05:18:16;;;;;;;7.90;7.13;;;;;;;;;;5083928;28;20496;-77
2023/06/19 05:20:42;;;;;;;7.90;7.10;;;;;;;;;;5083457;28;20043;-78
2023/06/19 05:23:07;;;;;;;11.27;8.40;;;;;;;;;;5079402;28;20032;-76
2023/06/19 05:25:33;;;;;;;11.95;8.73;;;;;;;;;;5076360;28;20111;-80
2023/06/19 05:27:58;;;;;;;9.20;7.93;;;;;;;;;;5078022;28;20032;-79
2023/06/19 05:30:23;;;;;;;9.88;7.30;;;;;;;;;;5083319;28;20024;-78
2023/06/19 05:32:49;;;;;;;8.38;7.10;;;;;;;;;;5081027;28;20032;-77
2023/06/19 05:35:14;;;;;;;8.10;7.30;;;;;;;;;;5081519;28;20136;-80
2023/06/19 05:37:42;;;;;;;8.52;7.13;;;;;;;;;;5082608;28;20028;-77
2023/06/19 05:40:08;;;;;;;7.80;7.00;;;;;;;;;;5081004;28;20024;-77
2023/06/19 05:42:34;;;;;;;10.02;7.20;;;;;;;;;;5080937;28;20027;-75
2023/06/19 05:44:59;;;;;;;8.15;7.10;;;;;;;;;;5082646;28;20024;-80
2023/06/19 05:47:25;;;;;;;7.47;6.78;;;;;;;;;;5079428;28;20028;-76
2023/06/19 05:49:51;;;;;;;8.52;7.07;;;;;;;;;;5073049;28;20047;-78
2023/06/19 05:52:16;;;;;;;8.95;6.95;;;;;;;;;;5076152;28;20363;-78
2023/06/19 05:54:42;;;;;;;8.07;6.47;;;;;;;;;;5081663;28;20089;-77
2023/06/19 05:57:07;;;;;;;7.05;6.35;;;;;;;;;;5083136;28;20016;-77
2023/06/19 05:59:32;;;;;;;7.75;7.05;;;;;;;;;;5081026;28;20043;-77
2023/06/19 06:01:58;;;;;;;11.23;6.93;;;;;;;;;;5080427;28;20024;-79
2023/06/19 06:04:23;;;;;;;7.03;6.43;;;;;;;;;;5081553;28;20036;-78
2023/06/19 06:06:49;;;;;;;7.07;5.85;;;;;;;;;;5082477;28;20425;-78
2023/06/19 06:09:16;;;;;;;9.13;6.72;;;;;;;;;;5082666;28;20127;-78
2023/06/19 06:11:41;;;;;;;6.88;6.05;;;;;;;;;;5079403;28;20366;-78
2023/06/19 06:14:07;;;;;;;8.05;6.45;;;;;;;;;;5078333;28;20040;-79
2023/06/19 06:16:32;;;;;;;7.22;6.32;;;;;;;;;;5081156;28;20934;-78
2023/06/19 06:18:58;;;;;;;8.60;6.82;;;;;;;;;;5081446;28;20122;-77
2023/06/19 06:21:24;;;;;;;10.30;6.88;;;;;;;;;;5082458;28;20433;-76
2023/06/19 06:23:49;;;;;;;7.28;6.68;;;;;;;;;;5081198;28;20028;-77
2023/06/19 06:26:14;;;;;;;7.18;6.38;;;;;;;;;;5080832;28;20436;-78
2023/06/19 06:28:40;;;;;;;7.10;6.18;;;;;;;;;;5082107;28;20028;-76
2023/06/19 06:31:05;;;;;;;8.75;6.85;;;;;;;;;;5080713;28;20055;-77
2023/06/19 06:33:30;;;;;;;6.97;6.32;;;;;;;;;;5081050;28;20892;-77
2023/06/19 06:35:57;;;;;;;6.50;5.90;;;;;;;;;;5081114;28;20081;-79
2023/06/19 06:38:22;;;;;;;7.53;6.55;;;;;;;;;;5079664;28;20031;-78
2023/06/19 06:40:47;;;;;;;7.30;6.70;;;;;;;;;;5082936;28;20024;-77
2023/06/19 06:43:13;;;;;;;9.05;7.18;;;;;;;;;;5078329;28;20036;-77
2023/06/19 06:45:38;;;;;;;7.88;6.93;;;;;;;;;;5080006;28;20024;-76
2023/06/19 06:48:04;;;;;;;8.38;6.60;;;;;;;;;;5079506;28;20036;-81
2023/06/19 06:50:32;;;;;;;11.32;8.70;;;;;;;;;;5079008;28;20012;-77
2023/06/19 06:52:57;;;;;;;8.65;6.53;;;;;;;;;;5079655;28;20035;-76
2023/06/19 06:55:22;;;;;;;8.77;6.57;;;;;;;;;;5079102;28;20462;-78
2023/06/19 06:57:47;;;;;;;9.52;6.80;;;;;;;;;;5080926;28;20051;-77
2023/06/19 07:00:13;;;;;;;9.10;6.72;;;;;;;;;;5078278;28;20036;-78
2023/06/19 07:02:40;;;;;;;7.20;6.50;;;;;;;;;;5082585;28;20031;-78
2023/06/19 07:05:06;;;;;;;7.88;7.07;;;;;;;;;;5077959;28;20027;-77
2023/06/19 07:07:31;;;;;;;7.03;6.35;;;;;;;;;;5081413;28;20123;-77
2023/06/19 07:09:57;;;;;;;10.27;6.32;;;;;;;;;;5080857;28;21284;-79
2023/06/19 07:12:22;;;;;;;7.35;6.70;;;;;;;;;;5080252;28;20391;-77
2023/06/19 07:14:47;;;;;;;7.40;6.70;;;;;;;;;;5080330;28;20048;-77
2023/06/19 07:17:13;;;;;;;7.80;7.00;;;;;;;;;;5078390;28;20371;-77
2023/06/19 07:19:38;;;;;;;7.20;5.90;;;;;;;;;;5080001;28;20435;-78
2023/06/19 07:22:03;;;;;;;6.93;5.72;;;;;;;;;;5081763;28;20351;-76
2023/06/19 07:24:29;;;;;;;6.43;5.93;;;;;;;;;;5080355;28;20768;-76
2023/06/19 07:26:55;;;;;;;6.40;5.80;;;;;;;;;;5079190;28;20343;-76
2023/06/19 07:29:21;;;;;;;6.95;6.35;;;;;;;;;;5082813;28;20020;-75
2023/06/19 07:31:46;;;;;;;7.10;6.40;;;;;;;;;;5081798;28;20031;-76
2023/06/19 07:34:13;;;;;;;8.13;5.72;;;;;;;;;;5078618;28;20039;-78
2023/06/19 07:36:38;;;;;;;7.32;6.47;;;;;;;;;;5079053;28;20024;-77
2023/06/19 07:39:03;;;;;;;10.68;6.28;;;;;;;;;;5081011;28;20034;-77
2023/06/19 07:41:29;;;;;;;7.75;5.90;;;;;;;;;;5078559;28;20060;-77
2023/06/19 07:43:54;;;;;;;6.45;5.78;;;;;;;;;;5080102;28;20025;-76
2023/06/19 07:46:19;;;;;;;6.50;5.85;;;;;;;;;;5082032;28;20423;-77
2023/06/19 07:48:45;;;;;;;7.00;5.80;;;;;;;;;;5082371;28;20032;-81
2023/06/19 07:51:10;;;;;;;5.88;5.18;;;;;;;;;;5078782;28;20070;-76
2023/06/19 07:53:36;;;;;;;5.85;5.35;;;;;;;;;;5081386;28;20028;-78
2023/06/19 07:56:01;;;;;;;5.75;5.25;;;;;;;;;;5078725;28;20039;-77
2023/06/19 07:58:26;;;;;;;6.05;5.45;;;;;;;;;;5080316;28;20048;-76
2023/06/19 08:00:52;;;;;;;5.70;5.10;;;;;;;;;;5076587;28;20430;-76
2023/06/19 08:03:17;;;;;;;6.55;5.30;;;;;;;;;;5077661;28;20350;-77
2023/06/19 08:05:42;;;;;;;6.45;5.20;;;;;;;;;;5079560;28;20458;-76
2023/06/19 08:08:08;;;;;;;5.88;5.38;;;;;;;;;;5079505;28;20466;-76
2023/06/19 08:10:33;;;;;;;6.38;5.13;;;;;;;;;;5079706;28;20024;-76
2023/06/19 08:12:59;;;;;;;5.40;4.72;;;;;;;;;;5078512;28;20032;-78
2023/06/19 08:15:24;;;;;;;5.63;5.13;;;;;;;;;;5080449;28;20391;-76
2023/06/19 08:17:49;;;;;;;5.60;4.97;;;;;;;;;;5077738;28;20065;-79
2023/06/19 08:20:15;;;;;;;5.65;5.05;;;;;;;;;;5065680;28;20111;-78
2023/06/19 08:22:40;;;;;;;7.13;5.22;;;;;;;;;;5065994;28;20043;-77
2023/06/19 08:25:06;;;;;;;7.72;5.53;;;;;;;;;;5069950;28;20461;-77
2023/06/19 08:27:31;;;;;;;13.27;5.20;;;;;;;;;;5070134;28;20410;-75
2023/06/19 08:29:57;;;;;;;5.57;5.05;;;;;;;;;;5070381;28;20427;-76
2023/06/19 08:32:22;;;;;;;7.63;5.00;;;;;;;;;;5070507;28;20020;-76
2023/06/19 08:34:47;;;;;;;6.60;5.10;;;;;;;;;;5069780;28;20031;-78
2023/06/19 08:37:13;;;;;;;5.68;5.18;;;;;;;;;;5071178;28;20077;-77
2023/06/19 08:39:39;;;;;;;5.47;5.07;;;;;;;;;;5067390;28;20373;-78
2023/06/19 08:42:07;;;;;;;6.13;4.63;;;;;;;;;;5069934;28;20423;-75
2023/06/19 08:44:34;;;;;;;4.78;4.38;;;;;;;;;;5069721;28;20038;-77
2023/06/19 08:46:59;;;;;;;5.38;4.88;;;;;;;;;;5070088;28;20454;-78
2023/06/19 08:49:25;;;;;;;5.93;5.03;;;;;;;;;;5070487;28;20024;-77
2023/06/19 08:51:50;;;;;;;5.47;4.97;;;;;;;;;;5064546;28;20040;-78
2023/06/19 08:54:15;;;;;;;7.68;4.80;;;;;;;;;;5068521;28;20035;-75
2023/06/19 08:56:41;;;;;;;5.22;4.82;;;;;;;;;;5069744;28;20024;-77
2023/06/19 08:59:13;;;;;;;6.80;4.57;;;;;;;;;;5068653;28;20048;-75
2023/06/19 09:01:39;;;;;;;6.05;4.80;;;;;;;;;;5069174;28;20024;-78
2023/06/19 09:04:28;;;;;;;4.97;4.57;;;;;;;;;;5065323;28;20031;-75
2023/06/19 09:06:53;;;;;;;6.53;5.10;;;;;;;;;;5062557;28;20048;-77
2023/06/19 09:09:23;;;;;;;4.85;4.45;;;;;;;;;;5066674;28;20476;-78
2023/06/19 09:12:01;;;;;;;5.40;4.55;;;;;;;;;;5062803;28;20108;-76
2023/06/19 09:14:36;;;;;;;6.75;5.80;;;;;;;;;;5067052;28;21122;-76
2023/06/19 09:17:06;;;;;;;5.13;4.72;;;;;;;;;;5069695;28;20101;-77
2023/06/19 09:19:34;;;;;;;4.50;4.20;;;;;;;;;;5067096;28;20105;-78
2023/06/19 09:22:07;;;;;;;4.43;4.13;;;;;;;;;;5067835;28;20039;-77
2023/06/19 09:24:36;;;;;;;5.45;5.00;;;;;;;;;;5068692;28;20417;-77
2023/06/19 09:27:20;;;;;;;5.28;4.78;;;;;;;;;;5072959;28;20040;-78
2023/06/19 09:29:49;;;;;;;4.80;4.40;;;;;;;;;;5069302;28;20039;-77
2023/06/19 09:32:23;;;;;;;5.53;5.03;;;;;;;;;;5067334;28;20035;-77
2023/06/19 09:34:50;;;;;;;6.80;4.78;;;;;;;;;;5066310;28;20024;-77
2023/06/19 09:37:20;;;;;;;4.63;4.15;;;;;;;;;;5068585;28;20107;-77
2023/06/19 09:39:46;;;;;;;4.97;4.57;;;;;;;;;;5067734;28;20107;-77
2023/06/19 09:42:13;;;;;;;5.53;4.20;;;;;;;;;;5066757;28;20035;-77
2023/06/19 09:44:42;;;;;;;5.15;4.57;;;;;;;;;;5069472;28;20057;-76
2023/06/19 09:47:20;;;;;;;7.97;4.90;;;;;;;;;;5067833;28;21138;-77
2023/06/19 09:49:53;;;;;;;6.47;4.50;;;;;;;;;;5067284;28;20028;-78
2023/06/19 09:52:20;;;;;;;4.97;4.57;;;;;;;;;;5065668;28;20458;-76
2023/06/19 09:54:46;;;;;;;5.78;5.07;;;;;;;;;;5062281;28;20044;-76
2023/06/19 09:57:11;;;;;;;5.25;4.75;;;;;;;;;;5079956;28;20134;-76
2023/06/19 09:59:39;;;;;;;5.10;4.68;;;;;;;;;;5064868;28;20032;-75
2023/06/19 10:02:06;;;;;;;4.80;4.18;;;;;;;;;;5070366;28;20040;-77
2023/06/19 10:04:44;;;;;;;6.75;4.90;;;;;;;;;;5080560;28;20032;-77
2023/06/19 10:07:20;;;;;;;5.05;4.22;;;;;;;;;;5080617;28;20448;-76
2023/06/19 10:09:56;;;;;;;4.75;4.22;;;;;;;;;;5078891;28;20036;-75
2023/06/19 10:12:21;;;;;;;5.05;4.45;;;;;;;;;;5070970;28;20063;-75
2023/06/19 10:14:50;;;;;;;5.68;4.90;;;;;;;;;;5070024;28;20055;-76
2023/06/19 10:17:18;;;;;;;4.85;4.45;;;;;;;;;;5074782;28;20046;-75
2023/06/19 10:19:50;;;;;;;5.53;4.63;;;;;;;;;;5081165;28;20118;-77
2023/06/19 10:22:20;;;;;;;5.15;4.65;;;;;;;;;;5067021;28;20032;-78
2023/06/19 10:24:49;;;;;;;5.45;4.45;;;;;;;;;;5070218;28;20129;-77
2023/06/19 10:27:20;;;;;;;4.95;4.45;;;;;;;;;;5062744;28;20084;-77
2023/06/19 10:29:51;;;;;;;5.20;4.75;;;;;;;;;;5076688;28;20111;-76
2023/06/19 10:32:17;;;;;;;6.95;5.70;;;;;;;;;;5080041;28;20028;-76
2023/06/19 10:34:45;;;;;;;8.23;4.80;;;;;;;;;;5079274;28;20028;-76
2023/06/19 10:37:10;;;;;;;7.20;4.73;;;;;;;;;;5081729;28;20038;-78
2023/06/19 10:39:35;;;;;;;4.68;4.28;;;;;;;;;;5065588;28;20024;-77
2023/06/19 10:42:05;;;;;;;5.80;4.85;;;;;;;;;;5075994;28;20127;-78
2023/06/19 10:44:30;;;;;;;5.38;4.88;;;;;;;;;;5065992;28;20055;-78
2023/06/19 10:46:56;;;;;;;5.43;4.93;;;;;;;;;;5065179;28;20415;-77
2023/06/19 10:49:22;;;;;;;4.65;4.35;;;;;;;;;;5065617;28;20094;-77
2023/06/19 10:51:48;;;;;;;5.13;4.63;;;;;;;;;;5067309;28;20443;-77
2023/06/19 10:54:13;;;;;;;5.80;5.30;;;;;;;;;;5066604;28;24355;-76
2023/06/19 10:56:39;;;;;;;5.38;4.72;;;;;;;;;;5067157;28;20042;-76
2023/06/19 10:59:11;;;;;;;7.05;4.90;;;;;;;;;;5065109;28;20197;-78
2023/06/19 11:01:36;;;;;;;5.80;5.10;;;;;;;;;;5067013;28;20089;-76
2023/06/19 11:04:03;;;;;;;5.00;4.60;;;;;;;;;;5067587;28;20023;-75
2023/06/19 11:06:28;;;;;;;6.78;5.25;;;;;;;;;;5068189;28;20028;-75
2023/06/19 11:08:54;;;;;;;5.97;5.43;;;;;;;;;;5067707;28;20028;-76
2023/06/19 11:11:20;;;;;;;6.28;5.68;;;;;;;;;;5067297;28;20095;-77
2023/06/19 11:13:45;;;;;;;5.10;4.47;;;;;;;;;;5067484;28;20119;-76
2023/06/19 11:16:11;;;;;;;5.07;4.68;;;;;;;;;;5068038;28;20109;-77
2023/06/19 11:18:36;;;;;;;5.60;5.00;;;;;;;;;;5064153;28;20119;-77
2023/06/19 11:21:01;;;;;;;5.88;5.03;;;;;;;;;;5068792;28;20031;-76
2023/06/19 11:23:30;;;;;;;5.38;4.97;;;;;;;;;;5067427;28;20032;-77
2023/06/19 11:26:02;;;;;;;5.70;5.03;;;;;;;;;;5067129;28;20970;-77
2023/06/19 11:28:29;;;;;;;6.78;5.18;;;;;;;;;;5066928;28;20034;-77
2023/06/19 11:31:02;;;;;;;9.40;5.25;;;;;;;;;;5067650;28;20054;-76
2023/06/19 11:33:28;;;;;;;5.53;4.95;;;;;;;;;;5067407;28;20153;-77
2023/06/19 11:35:54;;;;;;;5.55;5.07;;;;;;;;;;5067531;28;20110;-76
2023/06/19 11:38:21;;;;;;;5.45;4.93;;;;;;;;;;5067071;28;20478;-75
2023/06/19 11:40:47;;;;;;;6.35;5.28;;;;;;;;;;5067389;28;20020;-76
2023/06/19 11:43:23;;;;;;;5.38;4.93;;;;;;;;;;5064998;28;20036;-76
2023/06/19 11:45:48;;;;;;;5.30;4.88;;;;;;;;;;5066577;28;20024;-76
2023/06/19 11:48:14;;;;;;;5.32;4.82;;;;;;;;;;5067417;28;20051;-76
2023/06/19 11:50:39;;;;;;;5.22;4.82;;;;;;;;;;5067014;28;20039;-77
2023/06/19 11:53:05;;;;;;;6.75;4.95;;;;;;;;;;5066060;28;20122;-77
2023/06/19 11:55:30;;;;;;;7.68;5.65;;;;;;;;;;5067318;28;20024;-77
2023/06/19 11:57:55;;;;;;;5.70;5.25;;;;;;;;;;5067014;28;20094;-77
2023/06/19 12:00:21;;;;;;;5.57;5.05;;;;;;;;;;5068119;28;20126;-77
2023/06/19 12:02:47;;;;;;;5.43;4.90;;;;;;;;;;5069390;28;20028;-77
2023/06/19 12:05:12;;;;;;;7.50;4.85;;;;;;;;;;5069583;28;20035;-75
2023/06/19 12:07:38;;;;;;;4.97;4.47;;;;;;;;;;5071248;28;20028;-78
2023/06/19 12:10:04;;;;;;;5.00;4.47;;;;;;;;;;5071622;28;20034;-78
2023/06/19 12:12:30;;;;;;;4.97;4.57;;;;;;;;;;5070297;28;20019;-78
2023/06/19 12:14:56;;;;;;;4.95;4.53;;;;;;;;;;5072907;28;20158;-77
2023/06/19 12:17:22;;;;;;;4.43;4.13;;;;;;;;;;5071054;28;20099;-77
2023/06/19 12:19:49;;;;;;;5.07;4.60;;;;;;;;;;5074143;28;20035;-77
2023/06/19 12:22:14;;;;;;;5.13;4.72;;;;;;;;;;5065822;28;20346;-77
2023/06/19 12:24:40;;;;;;;5.18;4.68;;;;;;;;;;5068238;28;20389;-76
2023/06/19 12:27:05;;;;;;;6.30;4.75;;;;;;;;;;5068673;28;20016;-77
2023/06/19 12:29:31;;;;;;;5.30;4.38;;;;;;;;;;5070545;28;20579;-77
2023/06/19 12:32:01;;;;;;;5.00;4.55;;;;;;;;;;5078508;28;20043;-77
2023/06/19 12:34:26;;;;;;;5.25;4.80;;;;;;;;;;5064888;28;20034;-74
2023/06/19 12:36:52;;;;;;;4.93;4.32;;;;;;;;;;5064358;28;20028;-76
2023/06/19 12:39:17;;;;;;;5.15;4.20;;;;;;;;;;5070877;28;20028;-76
2023/06/19 12:41:43;;;;;;;4.53;4.13;;;;;;;;;;5079614;28;20039;-77
2023/06/19 12:44:08;;;;;;;4.15;3.67;;;;;;;;;;5077395;28;20339;-75
2023/06/19 12:46:35;;;;;;;5.45;4.30;;;;;;;;;;5083074;28;20127;-76
2023/06/19 12:49:00;;;;;;;5.38;3.72;;;;;;;;;;5082234;28;20016;-76
2023/06/19 12:51:25;;;;;;;4.88;4.30;;;;;;;;;;5069111;28;20361;-77
2023/06/19 12:53:51;;;;;;;5.75;3.90;;;;;;;;;;5081130;28;20044;-77
2023/06/19 12:56:16;;;;;;;4.82;4.35;;;;;;;;;;5082554;28;20032;-76
2023/06/19 12:58:41;;;;;;;4.70;4.30;;;;;;;;;;5081502;28;20063;-77
2023/06/19 13:01:07;;;;;;;4.18;3.88;;;;;;;;;;5081000;28;20394;-77
2023/06/19 13:03:32;;;;;;;5.18;4.28;;;;;;;;;;5081693;28;20032;-76
2023/06/19 13:05:57;;;;;;;4.85;4.35;;;;;;;;;;5078908;28;21374;-77
2023/06/19 13:08:23;;;;;;;4.32;4.00;;;;;;;;;;5081995;28;20028;-76
2023/06/19 13:10:48;;;;;;;4.70;4.30;;;;;;;;;;5082994;28;20313;-77
2023/06/19 13:13:13;;;;;;;4.50;4.20;;;;;;;;;;5073300;28;20470;-76
2023/06/19 13:15:39;;;;;;;4.88;4.20;;;;;;;;;;5067335;28;21163;-78
2023/06/19 13:18:04;;;;;;;4.72;4.38;;;;;;;;;;5071855;28;20109;-77
2023/06/19 13:20:29;;;;;;;5.30;3.92;;;;;;;;;;5079421;28;20442;-74
2023/06/19 13:22:55;;;;;;;4.50;4.10;;;;;;;;;;5081712;28;20032;-76
2023/06/19 13:25:20;;;;;;;4.70;4.30;;;;;;;;;;5081259;28;20058;-78
2023/06/19 13:27:45;;;;;;;4.05;3.75;;;;;;;;;;5083472;28;20067;-78
2023/06/19 13:30:11;;;;;;;4.35;3.95;;;;;;;;;;5074712;28;20059;-77
2023/06/19 13:32:37;;;;;;;4.95;4.45;;;;;;;;;;5068744;28;20075;-77
2023/06/19 13:35:03;;;;;;;4.05;3.75;;;;;;;;;;5069849;28;20024;-79
2023/06/19 13:37:28;;;;;;;3.70;3.40;;;;;;;;;;5073817;28;20031;-82
2023/06/19 13:39:53;;;;;;;5.43;4.30;;;;;;;;;;5082401;28;20039;-81
2023/06/19 13:42:19;;;;;;;4.78;4.38;;;;;;;;;;5082103;28;20044;-86
2023/06/19 13:44:44;;;;;;;4.38;3.97;;;;;;;;;;5081284;28;20055;-82
2023/06/19 13:47:09;;;;;;;4.75;3.97;;;;;;;;;;5063638;28;20027;-82
2023/06/19 13:49:35;;;;;;;4.60;4.30;;;;;;;;;;5066844;28;20049;-77
2023/06/19 13:52:00;;;;;;;4.07;3.78;;;;;;;;;;5067524;28;20654;-76
2023/06/19 13:54:26;;;;;;;6.85;4.35;;;;;;;;;;5068678;28;20067;-77
2023/06/19 13:56:51;;;;;;;4.60;4.20;;;;;;;;;;5081117;28;20074;-77
2023/06/19 13:59:16;;;;;;;4.70;4.13;;;;;;;;;;5082854;28;20054;-76
2023/06/19 14:01:42;;;;;;;4.90;4.40;;;;;;;;;;5082760;28;20059;-79
2023/06/19 14:04:08;;;;;;;5.55;3.97;;;;;;;;;;5081391;28;20123;-76
2023/06/19 14:06:34;;;;;;;4.38;4.00;;;;;;;;;;5080168;28;20134;-78
2023/06/19 14:08:59;;;;;;;4.72;4.25;;;;;;;;;;5082418;28;20494;-77
2023/06/19 14:11:25;;;;;;;4.22;3.90;;;;;;;;;;5080486;28;20019;-79
2023/06/19 14:13:50;;;;;;;4.60;4.20;;;;;;;;;;5080992;28;20351;-76
2023/06/19 14:16:15;;;;;;;4.78;4.38;;;;;;;;;;5071387;28;20031;-79
2023/06/19 14:18:41;;;;;;;4.80;4.20;;;;;;;;;;5080689;28;20076;-77
2023/06/19 14:21:06;;;;;;;4.70;4.30;;;;;;;;;;5079623;28;20020;-78
2023/06/19 14:23:32;;;;;;;4.25;3.85;;;;;;;;;;5079443;28;20034;-77
2023/06/19 14:25:57;;;;;;;4.28;3.92;;;;;;;;;;5082246;28;20020;-76
2023/06/19 14:28:23;;;;;;;4.43;4.05;;;;;;;;;;5077321;28;20475;-79
2023/06/19 14:30:48;;;;;;;4.32;3.90;;;;;;;;;;5065177;28;20035;-78